sensor_id;sensor_type;location;lat;lon;timestamp;pressure;altitude;pressure_sealevel;temperature;humidity
56504;BME280;48812;51.606;-0.114;2023-03-17T00:01:04;99698.41;;;17.49;56.55
56504;BME280;48812;51.606;-0.114;2023-03-17T00:03:41;99679.69;;;17.49;56.70
56504;BME280;48812;51.606;-0.114;2023-03-17T00:06:23;99686.00;;;17.48;56.40
56504;BME280;48812;51.606;-0.114;2023-03-17T00:08:58;99680.66;;;17.48;56.70
56504;BME280;48812;51.606;-0.114;2023-03-17T00:11:31;99681.59;;;17.47;56.17
56504;BME280;48812;51.606;-0.114;2023-03-17T00:14:03;99694.09;;;17.46;56.08
56504;BME280;48812;51.606;-0.114;2023-03-17T00:16:38;99686.94;;;17.47;56.21
56504;BME280;48812;51.606;-0.114;2023-03-17T00:19:20;99689.59;;;17.47;56.16
56504;BME280;48812;51.606;-0.114;2023-03-17T00:21:57;99681.72;;;17.45;56.22
56504;BME280;48812;51.606;-0.114;2023-03-17T00:24:32;99685.22;;;17.46;56.32
56504;BME280;48812;51.606;-0.114;2023-03-17T00:27:10;99677.22;;;17.46;56.40
56504;BME280;48812;51.606;-0.114;2023-03-17T00:29:43;99682.56;;;17.46;56.63
56504;BME280;48812;51.606;-0.114;2023-03-17T00:32:18;99675.50;;;17.45;56.10
56504;BME280;48812;51.606;-0.114;2023-03-17T00:34:55;99679.91;;;17.46;56.52
56504;BME280;48812;51.606;-0.114;2023-03-17T00:37:29;99675.50;;;17.45;56.44
56504;BME280;48812;51.606;-0.114;2023-03-17T00:40:08;99676.38;;;17.45;56.18
56504;BME280;48812;51.606;-0.114;2023-03-17T00:42:46;99681.03;;;17.42;55.89
56504;BME280;48812;51.606;-0.114;2023-03-17T00:45:19;99686.28;;;17.43;56.24
56504;BME280;48812;51.606;-0.114;2023-03-17T00:47:53;99681.03;;;17.42;56.57
56504;BME280;48812;51.606;-0.114;2023-03-17T00:50:27;99690.88;;;17.41;56.53
56504;BME280;48812;51.606;-0.114;2023-03-17T00:53:00;99696.22;;;17.41;56.43
56504;BME280;48812;51.606;-0.114;2023-03-17T00:55:34;99681.13;;;17.40;56.28
56504;BME280;48812;51.606;-0.114;2023-03-17T00:58:25;99685.53;;;17.41;56.02
56504;BME280;48812;51.606;-0.114;2023-03-17T01:00:58;99684.69;;;17.41;56.22
56504;BME280;48812;51.606;-0.114;2023-03-17T01:03:30;99682.09;;;17.39;56.37
56504;BME280;48812;51.606;-0.114;2023-03-17T01:06:07;99694.59;;;17.39;56.28
56504;BME280;48812;51.606;-0.114;2023-03-17T01:08:42;99692.88;;;17.38;56.25
56504;BME280;48812;51.606;-0.114;2023-03-17T01:11:18;99708.06;;;17.37;55.85
56504;BME280;48812;51.606;-0.114;2023-03-17T01:13:51;99706.25;;;17.38;56.17
56504;BME280;48812;51.606;-0.114;2023-03-17T01:16:24;99704.53;;;17.37;56.40
56504;BME280;48812;51.606;-0.114;2023-03-17T01:18:58;99701.09;;;17.35;56.15
56504;BME280;48812;51.606;-0.114;2023-03-17T01:21:30;99706.44;;;17.35;56.00
56504;BME280;48812;51.606;-0.114;2023-03-17T01:24:03;99702.81;;;17.36;56.37
56504;BME280;48812;51.606;-0.114;2023-03-17T01:26:36;99707.28;;;17.35;56.17
56504;BME280;48812;51.606;-0.114;2023-03-17T01:29:08;99709.19;;;17.33;56.02
56504;BME280;48812;51.606;-0.114;2023-03-17T01:31:41;99707.38;;;17.33;55.93
56504;BME280;48812;51.606;-0.114;2023-03-17T01:34:14;99710.06;;;17.33;56.01
56504;BME280;48812;51.606;-0.114;2023-03-17T01:36:47;99703.94;;;17.31;56.32
56504;BME280;48812;51.606;-0.114;2023-03-17T01:39:19;99711.03;;;17.32;55.90
56504;BME280;48812;51.606;-0.114;2023-03-17T01:41:52;99717.31;;;17.31;56.02
56504;BME280;48812;51.606;-0.114;2023-03-17T01:44:32;99708.34;;;17.32;56.50
56504;BME280;48812;51.606;-0.114;2023-03-17T01:47:04;99706.63;;;17.31;56.06
56504;BME280;48812;51.606;-0.114;2023-03-17T01:49:38;99699.56;;;17.30;56.07
56504;BME280;48812;51.606;-0.114;2023-03-17T01:52:13;99693.38;;;17.30;55.80
56504;BME280;48812;51.606;-0.114;2023-03-17T01:54:54;99693.47;;;17.28;56.49
56504;BME280;48812;51.606;-0.114;2023-03-17T01:57:40;99696.13;;;17.28;55.88
56504;BME280;48812;51.606;-0.114;2023-03-17T02:00:19;99701.47;;;17.28;56.34
56504;BME280;48812;51.606;-0.114;2023-03-17T02:02:54;99691.75;;;17.27;56.15
56504;BME280;48812;51.606;-0.114;2023-03-17T02:05:28;99693.47;;;17.28;56.00
56504;BME280;48812;51.606;-0.114;2023-03-17T02:08:11;99689.09;;;17.27;56.23
56504;BME280;48812;51.606;-0.114;2023-03-17T02:10:44;99695.44;;;17.25;55.68
56504;BME280;48812;51.606;-0.114;2023-03-17T02:13:24;99694.44;;;17.27;56.15
56504;BME280;48812;51.606;-0.114;2023-03-17T02:15:58;99690.94;;;17.25;55.92
56504;BME280;48812;51.606;-0.114;2023-03-17T02:18:30;99696.28;;;17.25;55.87
56504;BME280;48812;51.606;-0.114;2023-03-17T02:24:51;99688.47;;;17.22;55.86
56504;BME280;48812;51.606;-0.114;2023-03-17T02:27:37;99687.53;;;17.23;55.72
56504;BME280;48812;51.606;-0.114;2023-03-17T02:30:17;99697.34;;;17.23;56.27
56504;BME280;48812;51.606;-0.114;2023-03-17T02:32:50;99683.13;;;17.22;56.02
56504;BME280;48812;51.606;-0.114;2023-03-17T02:35:28;99677.03;;;17.20;55.84
56504;BME280;48812;51.606;-0.114;2023-03-17T02:38:02;99677.91;;;17.21;56.01
56504;BME280;48812;51.606;-0.114;2023-03-17T02:40:45;99684.09;;;17.21;55.80
56504;BME280;48812;51.606;-0.114;2023-03-17T02:43:19;99677.22;;;17.17;55.92
56504;BME280;48812;51.606;-0.114;2023-03-17T02:45:51;99686.00;;;17.19;55.99
56504;BME280;48812;51.606;-0.114;2023-03-17T02:48:24;99684.19;;;17.20;55.94
56504;BME280;48812;51.606;-0.114;2023-03-17T02:50:56;99688.69;;;17.19;56.47
56504;BME280;48812;51.606;-0.114;2023-03-17T02:53:29;99678.94;;;17.18;56.41
56504;BME280;48812;51.606;-0.114;2023-03-17T02:56:03;99688.78;;;17.18;56.10
56504;BME280;48812;51.606;-0.114;2023-03-17T02:58:37;99682.56;;;17.17;55.81
56504;BME280;48812;51.606;-0.114;2023-03-17T03:01:09;99680.88;;;17.16;55.99
56504;BME280;48812;51.606;-0.114;2023-03-17T03:03:45;99693.25;;;17.17;55.86
56504;BME280;48812;51.606;-0.114;2023-03-17T03:06:18;99694.22;;;17.16;56.02
56504;BME280;48812;51.606;-0.114;2023-03-17T03:08:52;99689.81;;;17.15;56.02
56504;BME280;48812;51.606;-0.114;2023-03-17T03:11:25;99694.41;;;17.13;55.72
56504;BME280;48812;51.606;-0.114;2023-03-17T03:14:00;99685.41;;;17.14;55.94
56504;BME280;48812;51.606;-0.114;2023-03-17T03:16:33;99681.91;;;17.13;55.73
56504;BME280;48812;51.606;-0.114;2023-03-17T03:19:06;99674.84;;;17.12;55.57
56504;BME280;48812;51.606;-0.114;2023-03-17T03:21:39;99669.53;;;17.12;55.60
56504;BME280;48812;51.606;-0.114;2023-03-17T03:24:11;99665.03;;;17.13;56.25
56504;BME280;48812;51.606;-0.114;2023-03-17T03:26:44;99671.41;;;17.10;56.36
56504;BME280;48812;51.606;-0.114;2023-03-17T03:29:17;99677.63;;;17.11;55.84
56504;BME280;48812;51.606;-0.114;2023-03-17T03:31:49;99677.63;;;17.11;55.58
56504;BME280;48812;51.606;-0.114;2023-03-17T03:34:22;99679.50;;;17.09;56.04
56504;BME280;48812;51.606;-0.114;2023-03-17T03:36:54;99668.81;;;17.09;56.23
56504;BME280;48812;51.606;-0.114;2023-03-17T03:39:27;99667.13;;;17.08;55.85
56504;BME280;48812;51.606;-0.114;2023-03-17T03:41:59;99665.31;;;17.08;55.76
56504;BME280;48812;51.606;-0.114;2023-03-17T03:44:32;99664.47;;;17.08;55.61
56504;BME280;48812;51.606;-0.114;2023-03-17T03:47:04;99662.81;;;17.05;55.57
56504;BME280;48812;51.606;-0.114;2023-03-17T03:49:37;99658.25;;;17.07;55.73
56504;BME280;48812;51.606;-0.114;2023-03-17T03:52:10;99663.69;;;17.06;55.86
56504;BME280;48812;51.606;-0.114;2023-03-17T03:54:42;99657.50;;;17.05;56.03
56504;BME280;48812;51.606;-0.114;2023-03-17T03:57:15;99657.50;;;17.05;55.69
56504;BME280;48812;51.606;-0.114;2023-03-17T03:59:47;99663.69;;;17.06;55.97
56504;BME280;48812;51.606;-0.114;2023-03-17T04:02:20;99667.31;;;17.05;55.94
56504;BME280;48812;51.606;-0.114;2023-03-17T04:04:53;99661.97;;;17.05;55.80
56504;BME280;48812;51.606;-0.114;2023-03-17T04:07:25;99666.56;;;17.03;55.98
56504;BME280;48812;51.606;-0.114;2023-03-17T04:09:57;99668.25;;;17.04;56.39
56504;BME280;48812;51.606;-0.114;2023-03-17T04:12:30;99662.16;;;17.02;55.43
56504;BME280;48812;51.606;-0.114;2023-03-17T04:15:04;99663.91;;;17.03;55.83
56504;BME280;48812;51.606;-0.114;2023-03-17T04:17:36;99669.25;;;17.03;55.63
56504;BME280;48812;51.606;-0.114;2023-03-17T04:20:10;99662.16;;;17.02;55.55
56504;BME280;48812;51.606;-0.114;2023-03-17T04:22:44;99654.16;;;17.02;55.81
56504;BME280;48812;51.606;-0.114;2023-03-17T04:25:17;99650.63;;;17.01;55.81
56504;BME280;48812;51.606;-0.114;2023-03-17T04:27:50;99658.66;;;17.01;55.79
56504;BME280;48812;51.606;-0.114;2023-03-17T04:30:23;99647.97;;;17.01;56.15
56504;BME280;48812;51.606;-0.114;2023-03-17T04:32:58;99648.06;;;17.00;55.87
56504;BME280;48812;51.606;-0.114;2023-03-17T04:35:30;99653.41;;;17.00;55.80
56504;BME280;48812;51.606;-0.114;2023-03-17T04:38:03;99641.00;;;16.99;56.10
56504;BME280;48812;51.606;-0.114;2023-03-17T04:40:36;99641.00;;;16.99;56.06
56504;BME280;48812;51.606;-0.114;2023-03-17T04:43:08;99653.50;;;16.98;56.00
56504;BME280;48812;51.606;-0.114;2023-03-17T04:45:41;99650.91;;;16.96;55.95
56504;BME280;48812;51.606;-0.114;2023-03-17T04:48:13;99666.84;;;16.98;55.87
56504;BME280;48812;51.606;-0.114;2023-03-17T04:50:46;99659.78;;;16.97;55.59
56504;BME280;48812;51.606;-0.114;2023-03-17T04:53:19;99659.78;;;16.97;55.73
56504;BME280;48812;51.606;-0.114;2023-03-17T04:55:51;99656.25;;;16.96;56.20
56504;BME280;48812;51.606;-0.114;2023-03-17T04:58:23;99654.53;;;16.95;55.80
56504;BME280;48812;51.606;-0.114;2023-03-17T05:01:02;99657.19;;;16.95;56.20
56504;BME280;48812;51.606;-0.114;2023-03-17T05:03:35;99655.41;;;16.96;55.97
56504;BME280;48812;51.606;-0.114;2023-03-17T05:06:07;99651.88;;;16.95;55.91
56504;BME280;48812;51.606;-0.114;2023-03-17T05:08:40;99650.16;;;16.94;55.99
56504;BME280;48812;51.606;-0.114;2023-03-17T05:11:16;99655.50;;;16.94;55.79
56504;BME280;48812;51.606;-0.114;2023-03-17T05:13:48;99657.38;;;16.92;55.66
56504;BME280;48812;51.606;-0.114;2023-03-17T05:16:21;99667.13;;;16.93;56.12
56504;BME280;48812;51.606;-0.114;2023-03-17T05:18:53;99663.59;;;16.93;55.96
56504;BME280;48812;51.606;-0.114;2023-03-17T05:21:26;99672.56;;;16.92;56.08
56504;BME280;48812;51.606;-0.114;2023-03-17T05:23:58;99681.41;;;16.92;56.00
56504;BME280;48812;51.606;-0.114;2023-03-17T05:26:31;99671.72;;;16.91;56.14
56504;BME280;48812;51.606;-0.114;2023-03-17T05:29:04;99686.00;;;16.90;56.11
56504;BME280;48812;51.606;-0.114;2023-03-17T05:31:36;99683.34;;;16.90;55.70
56504;BME280;48812;51.606;-0.114;2023-03-17T05:34:09;99684.28;;;16.89;56.31
56504;BME280;48812;51.606;-0.114;2023-03-17T05:36:42;99686.94;;;16.89;56.09
56504;BME280;48812;51.606;-0.114;2023-03-17T05:39:14;99689.63;;;16.89;55.81
56504;BME280;48812;51.606;-0.114;2023-03-17T05:41:47;99678.94;;;16.89;56.11
56504;BME280;48812;51.606;-0.114;2023-03-17T05:44:21;99678.09;;;16.89;56.00
56504;BME280;48812;51.606;-0.114;2023-03-17T05:46:53;99683.53;;;16.87;55.89
56504;BME280;48812;51.606;-0.114;2023-03-17T05:49:28;99682.66;;;16.87;55.41
56504;BME280;48812;51.606;-0.114;2023-03-17T05:52:00;99688.00;;;16.87;56.00
56504;BME280;48812;51.606;-0.114;2023-03-17T05:54:33;99685.34;;;16.87;55.66
56504;BME280;48812;51.606;-0.114;2023-03-17T05:57:05;99672.94;;;16.86;55.56
56504;BME280;48812;51.606;-0.114;2023-03-17T05:59:38;99684.50;;;16.86;55.57
56504;BME280;48812;51.606;-0.114;2023-03-17T06:02:11;99681.91;;;16.85;55.59
56504;BME280;48812;51.606;-0.114;2023-03-17T06:04:44;99680.19;;;16.84;55.77
56504;BME280;48812;51.606;-0.114;2023-03-17T06:07:16;99684.69;;;16.83;55.67
56504;BME280;48812;51.606;-0.114;2023-03-17T06:09:49;99684.69;;;16.83;55.94
56504;BME280;48812;51.606;-0.114;2023-03-17T06:12:21;99682.09;;;16.82;55.62
56504;BME280;48812;51.606;-0.114;2023-03-17T06:14:53;99682.09;;;16.82;55.92
56504;BME280;48812;51.606;-0.114;2023-03-17T06:17:26;99685.63;;;16.82;55.70
56504;BME280;48812;51.606;-0.114;2023-03-17T06:19:59;99691.91;;;16.81;55.60
56504;BME280;48812;51.606;-0.114;2023-03-17T06:22:35;99689.22;;;16.81;56.08
56504;BME280;48812;51.606;-0.114;2023-03-17T06:25:08;99691.91;;;16.81;55.69
56504;BME280;48812;51.606;-0.114;2023-03-17T06:27:41;99684.00;;;16.80;55.91
56504;BME280;48812;51.606;-0.114;2023-03-17T06:30:15;99688.47;;;16.79;56.26
56504;BME280;48812;51.606;-0.114;2023-03-17T06:32:47;99685.81;;;16.79;55.71
56504;BME280;48812;51.606;-0.114;2023-03-17T06:35:20;99676.09;;;16.78;56.06
56504;BME280;48812;51.606;-0.114;2023-03-17T06:37:54;99676.94;;;16.78;55.69
56504;BME280;48812;51.606;-0.114;2023-03-17T06:40:28;99685.06;;;16.77;55.91
56504;BME280;48812;51.606;-0.114;2023-03-17T06:43:00;99690.38;;;16.77;56.08
56504;BME280;48812;51.606;-0.114;2023-03-17T06:45:34;99694.00;;;16.76;56.31
56504;BME280;48812;51.606;-0.114;2023-03-17T06:48:06;99694.97;;;16.75;56.39
56504;BME280;48812;51.606;-0.114;2023-03-17T06:50:39;99692.22;;;16.76;56.00
56504;BME280;48812;51.606;-0.114;2023-03-17T06:53:12;99686.78;;;16.78;56.12
56504;BME280;48812;51.606;-0.114;2023-03-17T06:55:45;99680.38;;;16.81;56.25
56504;BME280;48812;51.606;-0.114;2023-03-17T06:58:18;99686.56;;;16.81;56.20
56504;BME280;48812;51.606;-0.114;2023-03-17T07:00:52;99689.13;;;16.83;56.28
56504;BME280;48812;51.606;-0.114;2023-03-17T07:03:27;99695.25;;;16.85;55.94
56504;BME280;48812;51.606;-0.114;2023-03-17T07:06:02;99690.59;;;16.88;56.53
56504;BME280;48812;51.606;-0.114;2023-03-17T07:08:35;99687.72;;;16.91;56.08
56504;BME280;48812;51.606;-0.114;2023-03-17T07:11:07;99687.56;;;16.94;56.45
56504;BME280;48812;51.606;-0.114;2023-03-17T07:13:41;99696.41;;;16.95;56.34
56504;BME280;48812;51.606;-0.114;2023-03-17T07:16:19;99695.16;;;17.01;56.01
56504;BME280;48812;51.606;-0.114;2023-03-17T07:18:54;99693.28;;;17.03;56.90
56504;BME280;48812;51.606;-0.114;2023-03-17T07:21:26;99693.06;;;17.06;56.71
56504;BME280;48812;51.606;-0.114;2023-03-17T07:23:59;99687.53;;;17.09;56.33
56504;BME280;48812;51.606;-0.114;2023-03-17T07:26:32;99677.63;;;17.11;56.25
56504;BME280;48812;51.606;-0.114;2023-03-17T07:29:05;99669.38;;;17.14;56.62
56504;BME280;48812;51.606;-0.114;2023-03-17T07:31:37;99681.72;;;17.17;56.83
56504;BME280;48812;51.606;-0.114;2023-03-17T07:34:10;99685.13;;;17.19;56.47
56504;BME280;48812;51.606;-0.114;2023-03-17T07:36:43;99680.44;;;17.22;56.10
56504;BME280;48812;51.606;-0.114;2023-03-17T07:39:15;99690.19;;;17.23;56.32
56504;BME280;48812;51.606;-0.114;2023-03-17T07:41:47;99705.13;;;17.27;56.57
56504;BME280;48812;51.606;-0.114;2023-03-17T07:44:24;99713.88;;;17.29;56.92
56504;BME280;48812;51.606;-0.114;2023-03-17T07:46:57;99715.50;;;17.32;56.38
56504;BME280;48812;51.606;-0.114;2023-03-17T07:49:29;99712.72;;;17.33;56.87
56504;BME280;48812;51.606;-0.114;2023-03-17T07:52:13;99708.16;;;17.36;56.90
56504;BME280;48812;51.606;-0.114;2023-03-17T07:54:46;99715.09;;;17.38;56.23
56504;BME280;48812;51.606;-0.114;2023-03-17T07:57:19;99713.28;;;17.39;56.86
56504;BME280;48812;51.606;-0.114;2023-03-17T07:59:51;99719.41;;;17.41;56.79
56504;BME280;48812;51.606;-0.114;2023-03-17T08:02:24;99717.50;;;17.43;57.08
56504;BME280;48812;51.606;-0.114;2023-03-17T08:04:56;99710.41;;;17.42;56.87
56504;BME280;48812;51.606;-0.114;2023-03-17T08:07:29;99709.28;;;17.46;57.32
56504;BME280;48812;51.606;-0.114;2023-03-17T08:10:06;99719.97;;;17.46;56.77
56504;BME280;48812;51.606;-0.114;2023-03-17T08:12:39;99731.41;;;17.48;57.10
56504;BME280;48812;51.606;-0.114;2023-03-17T08:15:12;99737.59;;;17.48;56.75
56504;BME280;48812;51.606;-0.114;2023-03-17T08:17:44;99758.91;;;17.50;57.83
56504;BME280;48812;51.606;-0.114;2023-03-17T08:20:17;99753.56;;;17.50;57.37
56504;BME280;48812;51.606;-0.114;2023-03-17T08:22:50;99754.44;;;17.50;57.37
56504;BME280;48812;51.606;-0.114;2023-03-17T08:25:22;99754.44;;;17.50;57.41
56504;BME280;48812;51.606;-0.114;2023-03-17T08:27:55;99752.69;;;17.49;57.28
56504;BME280;48812;51.606;-0.114;2023-03-17T08:30:28;99760.63;;;17.51;57.11
56504;BME280;48812;51.606;-0.114;2023-03-17T08:33:04;99754.34;;;17.52;57.33
56504;BME280;48812;51.606;-0.114;2023-03-17T08:35:39;99750.78;;;17.51;57.05
56504;BME280;48812;51.606;-0.114;2023-03-17T08:38:13;99747.25;;;17.51;57.10
56504;BME280;48812;51.606;-0.114;2023-03-17T08:40:45;99751.66;;;17.52;56.79
56504;BME280;48812;51.606;-0.114;2023-03-17T08:43:17;99744.59;;;17.51;57.12
56504;BME280;48812;51.606;-0.114;2023-03-17T08:45:50;99742.66;;;17.53;57.55
56504;BME280;48812;51.606;-0.114;2023-03-17T08:48:23;99754.25;;;17.54;57.36
56504;BME280;48812;51.606;-0.114;2023-03-17T08:50:55;99760.44;;;17.54;57.48
56504;BME280;48812;51.606;-0.114;2023-03-17T08:53:28;99760.44;;;17.54;57.26
56504;BME280;48812;51.606;-0.114;2023-03-17T08:56:01;99751.56;;;17.54;56.87
56504;BME280;48812;51.606;-0.114;2023-03-17T08:58:37;99742.56;;;17.55;57.26
56504;BME280;48812;51.606;-0.114;2023-03-17T09:01:17;99735.41;;;17.55;57.08
56504;BME280;48812;51.606;-0.114;2023-03-17T09:03:53;99731.97;;;17.53;57.19
56504;BME280;48812;51.606;-0.114;2023-03-17T09:06:26;99734.56;;;17.55;57.78
56504;BME280;48812;51.606;-0.114;2023-03-17T09:08:59;99729.22;;;17.55;57.08
56504;BME280;48812;51.606;-0.114;2023-03-17T09:11:32;99733.72;;;17.54;57.57
56504;BME280;48812;51.606;-0.114;2023-03-17T09:14:06;99739.06;;;17.54;56.72
56504;BME280;48812;51.606;-0.114;2023-03-17T09:16:38;99744.41;;;17.54;57.18
56504;BME280;48812;51.606;-0.114;2023-03-17T09:19:11;99744.41;;;17.54;57.28
56504;BME280;48812;51.606;-0.114;2023-03-17T09:21:43;99736.38;;;17.54;56.55
56504;BME280;48812;51.606;-0.114;2023-03-17T09:24:17;99738.22;;;17.54;57.19
56504;BME280;48812;51.606;-0.114;2023-03-17T09:26:50;99749.75;;;17.54;57.11
56504;BME280;48812;51.606;-0.114;2023-03-17T09:29:23;99754.25;;;17.54;56.96
56504;BME280;48812;51.606;-0.114;2023-03-17T09:31:55;99759.59;;;17.54;57.31
56504;BME280;48812;51.606;-0.114;2023-03-17T09:34:28;99757.00;;;17.52;56.83
56504;BME280;48812;51.606;-0.114;2023-03-17T09:37:00;99760.63;;;17.51;57.17
56504;BME280;48812;51.606;-0.114;2023-03-17T09:39:33;99760.63;;;17.51;57.34
56504;BME280;48812;51.606;-0.114;2023-03-17T09:49:59;99733.16;;;17.49;57.00
56504;BME280;48812;51.606;-0.114;2023-03-17T09:52:34;99731.41;;;17.48;57.02
56504;BME280;48812;51.606;-0.114;2023-03-17T09:55:09;99728.75;;;17.48;57.25
56504;BME280;48812;51.606;-0.114;2023-03-17T09:57:44;99732.34;;;17.47;56.75
56504;BME280;48812;51.606;-0.114;2023-03-17T10:00:18;99746.69;;;17.46;57.23
56504;BME280;48812;51.606;-0.114;2023-03-17T10:02:52;99746.69;;;17.46;56.83
56504;BME280;48812;51.606;-0.114;2023-03-17T10:05:29;99744.97;;;17.45;56.77
56504;BME280;48812;51.606;-0.114;2023-03-17T10:08:25;99750.31;;;17.45;57.04
56504;BME280;48812;51.606;-0.114;2023-03-17T10:11:26;99748.63;;;17.44;56.87
56504;BME280;48812;51.606;-0.114;2023-03-17T10:17:19;99754.06;;;17.42;56.40
56504;BME280;48812;51.606;-0.114;2023-03-17T10:20:23;99751.38;;;17.42;57.11
56504;BME280;48812;51.606;-0.114;2023-03-17T10:23:06;99747.84;;;17.42;56.69
56504;BME280;48812;51.606;-0.114;2023-03-17T10:25:43;99758.53;;;17.42;57.18
56504;BME280;48812;51.606;-0.114;2023-03-17T10:28:27;99755.84;;;17.42;56.53
56504;BME280;48812;51.606;-0.114;2023-03-17T10:31:18;99766.53;;;17.42;56.63
56504;BME280;48812;51.606;-0.114;2023-03-17T10:33:53;99763.09;;;17.40;56.69
56504;BME280;48812;51.606;-0.114;2023-03-17T10:36:36;99761.38;;;17.39;56.75
56504;BME280;48812;51.606;-0.114;2023-03-17T10:39:12;99752.41;;;17.40;56.31
56504;BME280;48812;51.606;-0.114;2023-03-17T10:41:54;99763.09;;;17.40;56.59
56504;BME280;48812;51.606;-0.114;2023-03-17T10:47:36;99767.59;;;17.39;57.15
56504;BME280;48812;51.606;-0.114;2023-03-17T10:53:06;99767.69;;;17.38;56.48
56504;BME280;48812;51.606;-0.114;2023-03-17T10:55:41;99765.88;;;17.38;56.86
56504;BME280;48812;51.606;-0.114;2023-03-17T10:58:21;99774.00;;;17.37;56.58
56504;BME280;48812;51.606;-0.114;2023-03-17T11:01:07;99764.19;;;17.37;56.57
56504;BME280;48812;51.606;-0.114;2023-03-17T11:03:47;99765.03;;;17.38;56.68
56504;BME280;48812;51.606;-0.114;2023-03-17T11:06:27;99763.28;;;17.37;56.81
56504;BME280;48812;51.606;-0.114;2023-03-17T11:09:08;99766.94;;;17.36;56.71
56504;BME280;48812;51.606;-0.114;2023-03-17T11:12:00;99769.63;;;17.36;57.24
56504;BME280;48812;51.606;-0.114;2023-03-17T11:14:33;99767.03;;;17.34;57.19
56504;BME280;48812;51.606;-0.114;2023-03-17T11:17:17;99766.94;;;17.36;57.04
56504;BME280;48812;51.606;-0.114;2023-03-17T11:26:00;99768.66;;;17.37;56.73
56504;BME280;48812;51.606;-0.114;2023-03-17T11:28:41;99764.19;;;17.37;57.18
56504;BME280;48812;51.606;-0.114;2023-03-17T11:31:27;99765.78;;;17.40;56.88
56504;BME280;48812;51.606;-0.114;2023-03-17T11:45:53;99766.44;;;17.58;57.50
56504;BME280;48812;51.606;-0.114;2023-03-17T11:51:27;99751.72;;;17.65;57.49
56504;BME280;48812;51.606;-0.114;2023-03-17T11:54:25;99755.06;;;17.68;57.67
56504;BME280;48812;51.606;-0.114;2023-03-17T11:57:12;99749.72;;;17.68;57.85
56504;BME280;48812;51.606;-0.114;2023-03-17T11:59:51;99753.91;;;17.73;58.36
56504;BME280;48812;51.606;-0.114;2023-03-17T12:05:25;99768.72;;;17.78;57.71
56504;BME280;48812;51.606;-0.114;2023-03-17T12:08:11;99770.31;;;17.81;57.89
56504;BME280;48812;51.606;-0.114;2023-03-17T12:10:53;99766.69;;;17.82;57.80
56504;BME280;48812;51.606;-0.114;2023-03-17T12:13:47;99766.50;;;17.85;58.34
56504;BME280;48812;51.606;-0.114;2023-03-17T12:19:09;99764.56;;;17.87;57.50
56504;BME280;48812;51.606;-0.114;2023-03-17T12:21:49;99759.97;;;17.89;58.09
56504;BME280;48812;51.606;-0.114;2023-03-17T12:24:25;99764.38;;;17.90;57.69
56504;BME280;48812;51.606;-0.114;2023-03-17T12:27:23;99764.28;;;17.92;57.38
56504;BME280;48812;51.606;-0.114;2023-03-17T12:32:49;99764.94;;;17.95;57.70
56504;BME280;48812;51.606;-0.114;2023-03-17T12:56:26;99727.84;;;18.03;57.90
56504;BME280;48812;51.606;-0.114;2023-03-17T12:59:07;99731.28;;;18.05;57.50
56504;BME280;48812;51.606;-0.114;2023-03-17T13:01:56;99720.38;;;18.09;58.02
56504;BME280;48812;51.606;-0.114;2023-03-17T13:04:34;99732.56;;;18.13;57.84
56504;BME280;48812;51.606;-0.114;2023-03-17T13:07:21;99711.06;;;18.14;57.75
56504;BME280;48812;51.606;-0.114;2023-03-17T13:23:44;99721.63;;;18.30;57.95
56504;BME280;48812;51.606;-0.114;2023-03-17T13:26:21;99717.00;;;18.32;57.27
56504;BME280;48812;51.606;-0.114;2023-03-17T13:28:53;99704.41;;;18.34;57.87
56504;BME280;48812;51.606;-0.114;2023-03-17T13:34:14;99710.34;;;18.39;57.51
56504;BME280;48812;51.606;-0.114;2023-03-17T13:37:01;99702.84;;;18.45;57.52
56504;BME280;48812;51.606;-0.114;2023-03-17T13:40:18;99710.78;;;18.46;57.37
56504;BME280;48812;51.606;-0.114;2023-03-17T13:46:27;99702.44;;;18.51;57.40
56504;BME280;48812;51.606;-0.114;2023-03-17T13:52:13;99694.06;;;18.55;57.29
56504;BME280;48812;51.606;-0.114;2023-03-17T13:54:57;99692.16;;;18.57;56.93
56504;BME280;48812;51.606;-0.114;2023-03-17T13:57:39;99698.16;;;18.61;57.97
56504;BME280;48812;51.606;-0.114;2023-03-17T14:00:19;99697.94;;;18.64;56.66
56504;BME280;48812;51.606;-0.114;2023-03-17T14:03:01;99696.75;;;18.68;57.56
56504;BME280;48812;51.606;-0.114;2023-03-17T14:05:35;99693.97;;;18.70;57.45
56504;BME280;48812;51.606;-0.114;2023-03-17T14:08:22;99682.22;;;18.72;57.34
56504;BME280;48812;51.606;-0.114;2023-03-17T14:11:01;99685.63;;;18.74;57.36
56504;BME280;48812;51.606;-0.114;2023-03-17T14:17:13;99688.94;;;18.78;56.72
56504;BME280;48812;51.606;-0.114;2023-03-17T14:20:18;99695.16;;;18.78;57.43
56504;BME280;48812;51.606;-0.114;2023-03-17T14:23:02;99690.69;;;18.79;57.17
56504;BME280;48812;51.606;-0.114;2023-03-17T14:25:38;99690.88;;;18.76;56.76
56504;BME280;48812;51.606;-0.114;2023-03-17T14:28:14;99694.53;;;18.88;56.69
56504;BME280;48812;51.606;-0.114;2023-03-17T14:30:51;99697.31;;;18.99;57.09
56504;BME280;48812;51.606;-0.114;2023-03-17T14:33:45;99695.78;;;19.08;56.67
56504;BME280;48812;51.606;-0.114;2023-03-17T14:36:27;99686.38;;;19.15;56.66
56504;BME280;48812;51.606;-0.114;2023-03-17T14:39:00;99687.84;;;19.32;55.89
56504;BME280;48812;51.606;-0.114;2023-03-17T14:41:33;99682.47;;;19.45;55.75
56504;BME280;48812;51.606;-0.114;2023-03-17T14:44:08;99683.03;;;19.74;55.06
56504;BME280;48812;51.606;-0.114;2023-03-17T14:46:43;99689.38;;;20.33;54.41
56504;BME280;48812;51.606;-0.114;2023-03-17T14:49:19;99689.53;;;21.00;53.13
56504;BME280;48812;51.606;-0.114;2023-03-17T14:51:57;99687.34;;;21.51;51.94
56504;BME280;48812;51.606;-0.114;2023-03-17T14:54:33;99689.78;;;21.65;51.17
56504;BME280;48812;51.606;-0.114;2023-03-17T14:57:14;99685.13;;;21.56;51.37
56504;BME280;48812;51.606;-0.114;2023-03-17T15:00:03;99687.84;;;21.33;50.88
56504;BME280;48812;51.606;-0.114;2023-03-17T15:03:02;99688.22;;;21.06;51.50
56504;BME280;48812;51.606;-0.114;2023-03-17T15:05:40;99688.56;;;20.90;51.95
56504;BME280;48812;51.606;-0.114;2023-03-17T15:08:38;99689.03;;;20.84;51.61
56504;BME280;48812;51.606;-0.114;2023-03-17T15:11:21;99686.09;;;20.76;51.67
56504;BME280;48812;51.606;-0.114;2023-03-17T15:14:13;99688.03;;;20.74;51.90